createdAt,value
2019-02-25T00:00:15.268Z,3.70
2019-02-25T00:02:47.814Z,3.60
2019-02-25T00:05:21.449Z,3.50
2019-02-25T00:07:54.339Z,3.40
2019-02-25T00:10:28.105Z,3.40
2019-02-25T00:13:02.526Z,3.30
2019-02-25T00:15:34.754Z,3.30
2019-02-25T00:18:06.951Z,3.30
2019-02-25T00:20:41.599Z,3.40
2019-02-25T00:23:16.393Z,3.30
2019-02-25T00:25:52.967Z,3.30
2019-02-25T00:28:26.250Z,3.40
2019-02-25T00:30:58.433Z,3.40
2019-02-25T00:33:31.330Z,3.30
2019-02-25T00:36:04.484Z,3.30
2019-02-25T00:38:44.419Z,3.30
2019-02-25T00:41:38.437Z,3.20
2019-02-25T00:44:12.514Z,3.30
2019-02-25T00:46:47.055Z,3.30
2019-02-25T00:49:20.320Z,3.30
2019-02-25T00:51:55.102Z,3.40
2019-02-25T00:54:28.358Z,3.40
2019-02-25T00:57:03.104Z,3.40
2019-02-25T00:59:37.835Z,3.30
2019-02-25T01:02:10.670Z,3.30
2019-02-25T01:04:43.751Z,3.30
2019-02-25T01:07:16.869Z,3.30
2019-02-25T01:09:49.779Z,3.30
2019-02-25T01:12:24.514Z,3.30
2019-02-25T01:14:57.847Z,3.30
2019-02-25T01:17:29.991Z,3.30
2019-02-25T01:20:02.303Z,3.30
2019-02-25T01:22:35.948Z,3.20
2019-02-25T01:25:12.962Z,3.20
2019-02-25T01:27:45.728Z,3.20
2019-02-25T01:30:23.779Z,3.20
2019-02-25T01:32:57.511Z,3.20
2019-02-25T01:35:33.019Z,3.20
2019-02-25T01:38:06.496Z,3.20
2019-02-25T01:40:41.484Z,3.20
2019-02-25T01:43:15.263Z,3.30
2019-02-25T01:45:49.683Z,3.40
2019-02-25T01:48:22.311Z,3.40
2019-02-25T01:50:55.140Z,3.50
2019-02-25T01:53:28.810Z,3.40
2019-02-25T01:55:59.475Z,3.50
2019-02-25T01:58:29.714Z,3.50
2019-02-25T02:01:00.433Z,3.50
2019-02-25T02:03:33.510Z,3.50
2019-02-25T02:06:08.227Z,3.50
2019-02-25T02:08:45.063Z,3.50
2019-02-25T02:11:17.831Z,3.40
2019-02-25T02:13:50.544Z,3.30
2019-02-25T02:16:20.627Z,3.30
2019-02-25T02:18:51.322Z,3.30
2019-02-25T02:21:26.211Z,3.30
2019-02-25T02:24:01.279Z,3.20
2019-02-25T02:26:37.572Z,3.20
2019-02-25T02:29:15.503Z,3.20
2019-02-25T02:31:48.713Z,3.20
2019-02-25T02:34:19.260Z,3.10
2019-02-25T02:36:51.186Z,3.20
2019-02-25T02:39:26.528Z,3.20
2019-02-25T02:42:30.463Z,3.20
2019-02-25T02:45:07.296Z,3.20
2019-02-25T02:47:53.428Z,3.20
2019-02-25T02:50:39.870Z,3.20
2019-02-25T02:53:14.468Z,3.20
2019-02-25T02:55:50.691Z,3.20
2019-02-25T02:58:23.789Z,3.20
2019-02-25T03:00:56.656Z,3.20
2019-02-25T03:03:29.866Z,3.20
2019-02-25T03:06:02.389Z,3.30
2019-02-25T03:08:36.482Z,3.30
2019-02-25T03:11:12.747Z,3.20
2019-02-25T03:13:44.743Z,3.20
2019-02-25T03:16:20.197Z,3.20
2019-02-25T03:19:00.434Z,3.10
2019-02-25T03:21:30.914Z,3.10
2019-02-25T03:24:05.603Z,3.10
2019-02-25T03:26:40.999Z,3.10
2019-02-25T03:29:15.649Z,3.20
2019-02-25T03:31:50.319Z,3.10
2019-02-25T03:34:24.416Z,3.10
2019-02-25T03:36:59.267Z,3.20
2019-02-25T03:39:33.332Z,3.20
2019-02-25T03:42:06.712Z,3.30
2019-02-25T03:44:39.463Z,3.30
2019-02-25T03:47:09.594Z,3.30
2019-02-25T03:49:39.559Z,3.30
2019-02-25T03:52:14.111Z,3.30
2019-02-25T03:54:48.328Z,3.30
2019-02-25T03:57:21.635Z,3.30
2019-02-25T03:59:55.398Z,3.50
2019-02-25T04:02:26.334Z,3.60
2019-02-25T04:05:01.423Z,3.70
2019-02-25T04:07:34.859Z,3.70
2019-02-25T04:10:07.264Z,3.80
2019-02-25T04:12:39.545Z,3.80
2019-02-25T04:15:14.187Z,3.80
2019-02-25T04:17:46.256Z,3.80
2019-02-25T04:20:21.249Z,3.80
2019-02-25T04:22:56.255Z,3.80
2019-02-25T04:25:30.025Z,3.80
2019-02-25T04:28:04.938Z,3.80
2019-02-25T04:30:39.777Z,3.90
2019-02-25T04:33:12.545Z,3.90
2019-02-25T04:35:42.702Z,3.90
2019-02-25T04:38:13.667Z,3.90
2019-02-25T04:40:46.367Z,3.90
2019-02-25T04:43:17.007Z,3.90
2019-02-25T04:45:47.395Z,3.90
2019-02-25T04:48:17.414Z,3.80
2019-02-25T04:50:49.888Z,3.80
2019-02-25T04:53:20.434Z,3.80
2019-02-25T04:55:50.817Z,3.80
2019-02-25T04:58:25.224Z,3.80
2019-02-25T05:00:59.277Z,3.70
2019-02-25T05:03:33.200Z,3.70
2019-02-25T05:06:06.591Z,3.70
2019-02-25T05:08:40.544Z,3.60
2019-02-25T05:11:10.347Z,3.60
2019-02-25T05:13:45.443Z,3.50
2019-02-25T05:16:17.252Z,3.50
2019-02-25T05:18:51.840Z,3.50
2019-02-25T05:21:24.935Z,3.50
2019-02-25T05:24:01.534Z,3.50
2019-02-25T05:26:37.489Z,3.50
2019-02-25T05:29:10.275Z,3.40
2019-02-25T05:31:40.528Z,3.40
2019-02-25T05:34:12.878Z,3.40
2019-02-25T05:36:46.661Z,3.40
2019-02-25T05:39:21.988Z,3.30
2019-02-25T05:41:55.923Z,3.30
2019-02-25T05:44:29.636Z,3.40
2019-02-25T05:47:06.311Z,3.40
2019-02-25T05:49:36.674Z,3.40
2019-02-25T05:52:09.536Z,3.40
2019-02-25T05:54:41.825Z,3.50
2019-02-25T05:57:16.962Z,3.50
2019-02-25T05:59:51.808Z,3.60
2019-02-25T06:02:28.961Z,3.50
2019-02-25T06:05:04.515Z,3.60
2019-02-25T06:07:37.867Z,3.60
2019-02-25T06:10:14.528Z,3.60
2019-02-25T06:12:47.337Z,3.60
2019-02-25T06:15:17.451Z,3.60
2019-02-25T06:17:51.438Z,3.60
2019-02-25T06:20:26.119Z,3.70
2019-02-25T06:23:00.191Z,3.60
2019-02-25T06:25:32.548Z,3.70
2019-02-25T06:28:10.271Z,3.60
2019-02-25T06:30:43.359Z,3.70
2019-02-25T06:33:16.383Z,3.70
2019-02-25T06:35:48.198Z,3.70
2019-02-25T06:38:19.379Z,3.70
2019-02-25T06:40:51.028Z,3.70
2019-02-25T06:43:21.393Z,3.70
2019-02-25T06:45:51.774Z,3.70
2019-02-25T06:48:24.031Z,3.70
2019-02-25T06:50:58.152Z,3.70
2019-02-25T06:53:31.935Z,3.70
2019-02-25T06:56:05.568Z,3.70
2019-02-25T06:58:37.921Z,3.70
2019-02-25T07:01:16.941Z,3.70
2019-02-25T07:04:08.702Z,3.70
2019-02-25T07:06:59.424Z,3.70
2019-02-25T07:09:54.760Z,3.70
2019-02-25T07:12:35.242Z,3.70
2019-02-25T07:15:26.695Z,3.70
2019-02-25T07:18:15.870Z,3.80
2019-02-25T07:21:04.511Z,3.70
2019-02-25T07:23:58.193Z,3.70
2019-02-25T07:26:48.151Z,3.70
2019-02-25T07:29:41.822Z,3.70
2019-02-25T07:32:21.214Z,3.70
2019-02-25T07:35:10.943Z,3.80
2019-02-25T07:38:01.735Z,3.90
2019-02-25T07:40:52.256Z,4.00
2019-02-25T07:43:46.310Z,4.00
2019-02-25T07:46:34.963Z,4.00
2019-02-25T07:49:29.606Z,4.20
2019-02-25T07:52:36.355Z,4.30
2019-02-25T07:55:18.985Z,4.40
2019-02-25T07:58:04.514Z,4.50
2019-02-25T08:01:03.524Z,4.60
2019-02-25T08:03:44.992Z,4.70
2019-02-25T08:06:43.646Z,4.80
2019-02-25T08:09:44.550Z,4.90
2019-02-25T08:12:44.010Z,4.90
2019-02-25T08:15:42.599Z,5.10
2019-02-25T08:18:27.230Z,5.10
2019-02-25T08:21:34.120Z,5.20
2019-02-25T08:24:40.415Z,5.30
2019-02-25T08:27:24.902Z,5.30
2019-02-25T08:30:21.466Z,5.30
2019-02-25T08:33:17.957Z,5.20
2019-02-25T08:36:45.435Z,5.30
2019-02-25T08:39:34.091Z,5.40
2019-02-25T08:42:26.726Z,5.40
2019-02-25T08:45:08.414Z,5.40
2019-02-25T08:47:52.932Z,5.40
2019-02-25T08:50:30.497Z,5.40
2019-02-25T08:53:05.974Z,5.40
2019-02-25T08:55:37.119Z,5.50
2019-02-25T08:58:11.811Z,5.50
2019-02-25T09:00:46.655Z,5.40
2019-02-25T09:03:21.344Z,5.40
2019-02-25T09:05:55.200Z,5.40
2019-02-25T09:08:26.025Z,5.40
2019-02-25T09:10:59.775Z,5.40
2019-02-25T09:13:33.550Z,5.30
2019-02-25T09:16:07.295Z,5.30
2019-02-25T09:18:40.997Z,5.20
2019-02-25T09:21:15.649Z,5.10
2019-02-25T09:23:51.207Z,5.10
2019-02-25T09:26:25.025Z,5.10
2019-02-25T09:28:57.411Z,5.10
2019-02-25T09:31:27.307Z,5.10
2019-02-25T09:34:01.380Z,5.10
2019-02-25T09:36:35.019Z,5.10
2019-02-25T09:39:09.863Z,5.10
2019-02-25T09:41:45.030Z,5.10
2019-02-25T09:44:18.530Z,5.10
2019-02-25T09:46:51.135Z,5.20
2019-02-25T09:49:25.664Z,5.20
2019-02-25T09:52:00.831Z,5.30
2019-02-25T09:54:34.635Z,5.30
2019-02-25T09:57:07.498Z,5.40
2019-02-25T09:59:39.103Z,5.50
2019-02-25T10:02:13.536Z,5.50
2019-02-25T10:04:47.520Z,5.60
2019-02-25T10:07:20.959Z,5.70
2019-02-25T10:09:53.015Z,5.80
2019-02-25T10:12:23.638Z,5.90
2019-02-25T10:14:53.954Z,5.90
2019-02-25T10:17:24.694Z,6.00
2019-02-25T10:19:57.919Z,6.00
2019-02-25T10:22:32.773Z,6.00
2019-02-25T10:25:06.782Z,6.10
2019-02-25T10:27:37.671Z,6.20
2019-02-25T10:30:10.452Z,6.30
2019-02-25T10:32:42.430Z,6.40
2019-02-25T10:35:15.566Z,6.50
2019-02-25T10:37:48.026Z,6.50
2019-02-25T10:40:23.994Z,6.60
2019-02-25T10:42:54.528Z,6.70
2019-02-25T10:45:30.565Z,6.70
2019-02-25T10:48:05.163Z,6.70
2019-02-25T10:50:40.810Z,6.80
2019-02-25T10:53:15.585Z,6.80
2019-02-25T10:56:10.088Z,6.80
2019-02-25T10:58:41.674Z,6.90
2019-02-25T11:01:17.506Z,7.00
2019-02-25T11:03:49.900Z,7.00
2019-02-25T11:06:21.670Z,7.10
2019-02-25T11:08:58.989Z,7.20
2019-02-25T11:11:33.096Z,7.30
2019-02-25T11:14:03.507Z,7.40
2019-02-25T11:16:34.904Z,7.40
2019-02-25T11:19:07.392Z,7.40
2019-02-25T11:21:39.794Z,7.40
2019-02-25T11:24:12.478Z,7.30
2019-02-25T11:26:46.437Z,7.20
2019-02-25T11:29:22.403Z,7.20
2019-02-25T11:31:56.411Z,7.10
2019-02-25T11:34:31.471Z,7.10
2019-02-25T11:37:03.455Z,7.20
2019-02-25T11:39:38.274Z,7.10
2019-02-25T11:42:13.515Z,7.10
2019-02-25T11:44:45.919Z,7.10
2019-02-25T11:47:18.922Z,7.20
2019-02-25T11:49:52.225Z,7.30
2019-02-25T11:52:23.914Z,7.40
2019-02-25T11:54:56.672Z,7.50
2019-02-25T11:57:29.779Z,7.50
2019-02-25T12:00:01.570Z,7.60
2019-02-25T12:02:37.409Z,7.70
2019-02-25T12:05:10.793Z,7.70
2019-02-25T12:07:43.230Z,7.80
2019-02-25T12:10:16.835Z,7.80
2019-02-25T12:12:48.874Z,7.90
2019-02-25T12:15:19.384Z,8.00
2019-02-25T12:17:49.995Z,8.10
2019-02-25T12:20:20.587Z,8.10
2019-02-25T12:22:54.431Z,8.20
2019-02-25T12:25:28.268Z,8.10
2019-02-25T12:28:03.209Z,8.10
2019-02-25T12:30:37.504Z,8.10
2019-02-25T12:33:13.956Z,8.10
2019-02-25T12:35:46.241Z,8.00
2019-02-25T12:38:19.999Z,8.00
2019-02-25T12:40:52.401Z,8.00
2019-02-25T12:43:28.034Z,8.00
2019-02-25T12:46:01.534Z,8.00
2019-02-25T12:48:35.142Z,8.10
2019-02-25T12:51:09.824Z,8.10
2019-02-25T12:53:43.454Z,8.20
2019-02-25T12:56:15.461Z,8.10
2019-02-25T12:58:50.306Z,8.10
2019-02-25T13:01:23.103Z,8.20
2019-02-25T13:03:58.560Z,8.20
2019-02-25T13:06:32.267Z,8.30
2019-02-25T13:09:07.742Z,8.30
2019-02-25T13:11:40.324Z,8.20
2019-02-25T13:14:12.423Z,8.20
2019-02-25T13:16:42.694Z,8.10
2019-02-25T13:19:13.619Z,8.10
2019-02-25T13:21:44.646Z,8.00
2019-02-25T13:24:15.355Z,7.90
2019-02-25T13:26:46.527Z,7.90
2019-02-25T13:29:17.087Z,7.90
2019-02-25T13:31:47.718Z,8.00
2019-02-25T13:34:17.531Z,8.00
2019-02-25T13:36:50.497Z,8.00
2019-02-25T13:39:24.350Z,8.00
2019-02-25T13:41:58.347Z,8.00
2019-02-25T13:44:35.103Z,8.00
2019-02-25T13:47:07.627Z,8.00
2019-02-25T13:49:38.351Z,8.00
2019-02-25T13:52:11.497Z,8.00
2019-02-25T13:54:46.139Z,8.00
2019-02-25T13:57:20.866Z,8.00
2019-02-25T13:59:54.176Z,8.00
2019-02-25T14:02:28.446Z,8.10
2019-02-25T14:05:03.264Z,8.10
2019-02-25T14:07:40.860Z,8.00
2019-02-25T14:10:16.995Z,8.10
2019-02-25T14:12:51.871Z,8.10
2019-02-25T14:15:24.606Z,8.10
2019-02-25T14:17:59.378Z,8.00
2019-02-25T14:20:32.484Z,8.00
2019-02-25T14:23:06.526Z,8.00
2019-02-25T14:25:38.452Z,8.00
2019-02-25T14:28:14.880Z,8.00
2019-02-25T14:30:51.399Z,8.00
2019-02-25T14:33:23.597Z,8.00
2019-02-25T14:35:55.593Z,7.90
2019-02-25T14:38:27.093Z,7.90
2019-02-25T14:41:01.886Z,7.80
2019-02-25T14:43:41.757Z,7.70
2019-02-25T14:46:14.031Z,7.70
2019-02-25T14:48:50.371Z,7.60
2019-02-25T14:51:27.513Z,7.50
2019-02-25T14:54:00.135Z,7.40
2019-02-25T14:56:30.521Z,7.40
2019-02-25T14:59:05.560Z,7.30
2019-02-25T15:01:35.555Z,7.30
2019-02-25T15:04:08.112Z,7.30
2019-02-25T15:06:38.866Z,7.30
2019-02-25T15:09:11.910Z,7.20
2019-02-25T15:11:42.464Z,7.10
2019-02-25T15:14:12.957Z,7.00
2019-02-25T15:16:48.713Z,6.90
2019-02-25T15:19:22.599Z,6.80
2019-02-25T15:21:56.443Z,6.80
2019-02-25T15:24:28.811Z,6.70
2019-02-25T15:27:02.462Z,6.60
2019-02-25T15:29:34.430Z,6.60
2019-02-25T15:32:05.707Z,6.50
2019-02-25T15:34:37.679Z,6.40
2019-02-25T15:37:11.737Z,6.30
2019-02-25T15:39:44.771Z,6.20
2019-02-25T15:42:23.772Z,6.10
2019-02-25T15:44:57.580Z,6.00
2019-02-25T15:47:34.927Z,5.90
2019-02-25T15:50:10.571Z,5.90
2019-02-25T15:52:48.290Z,5.80
2019-02-25T15:55:21.823Z,5.70
2019-02-25T15:57:56.373Z,5.50
2019-02-25T16:00:29.995Z,5.40
2019-02-25T16:03:06.040Z,5.30
2019-02-25T16:05:38.759Z,5.20
2019-02-25T16:08:16.146Z,5.10
2019-02-25T16:10:46.992Z,5.10
2019-02-25T16:13:19.588Z,5.10
2019-02-25T16:15:54.152Z,5.00
2019-02-25T16:18:29.059Z,4.90
2019-02-25T16:21:00.934Z,4.90
2019-02-25T16:23:39.074Z,4.80
2019-02-25T16:26:13.543Z,4.80
2019-02-25T16:28:50.441Z,4.70
2019-02-25T16:31:26.528Z,4.70
2019-02-25T16:34:01.406Z,4.70
2019-02-25T16:36:34.561Z,4.70
2019-02-25T16:39:10.178Z,4.60
2019-02-25T16:41:45.675Z,4.50
2019-02-25T16:44:19.051Z,4.50
2019-02-25T16:46:54.165Z,4.50
2019-02-25T16:49:31.764Z,4.40
2019-02-25T16:52:02.296Z,4.40
2019-02-25T16:54:37.287Z,4.30
2019-02-25T16:57:07.703Z,4.30
2019-02-25T16:59:41.020Z,4.20
2019-02-25T17:02:14.067Z,4.10
2019-02-25T17:04:46.971Z,4.10
2019-02-25T17:07:22.618Z,4.00
2019-02-25T17:09:58.704Z,4.00
2019-02-25T17:12:32.148Z,4.00
2019-02-25T17:15:09.966Z,4.00
2019-02-25T17:17:43.502Z,4.10
2019-02-25T17:20:17.191Z,4.20
2019-02-25T17:22:51.234Z,4.30
2019-02-25T17:25:22.199Z,4.40
2019-02-25T17:27:56.862Z,4.40
2019-02-25T17:30:30.835Z,4.60
2019-02-25T17:33:03.475Z,4.60
2019-02-25T17:35:37.374Z,4.70
2019-02-25T17:38:10.015Z,4.70
2019-02-25T17:40:46.759Z,4.80
2019-02-25T17:43:20.254Z,4.80
2019-02-25T17:45:56.115Z,4.90
2019-02-25T17:48:31.263Z,4.90
2019-02-25T17:51:03.901Z,4.90
2019-02-25T17:53:37.594Z,5.00
2019-02-25T17:56:09.917Z,5.00
2019-02-25T17:58:46.530Z,5.00
2019-02-25T18:01:23.513Z,5.00
2019-02-25T18:04:00.297Z,5.00
2019-02-25T18:06:36.309Z,5.00
2019-02-25T18:09:09.270Z,5.00
2019-02-25T18:11:41.197Z,5.00
2019-02-25T18:14:13.315Z,5.10
2019-02-25T18:16:48.170Z,5.10
2019-02-25T18:19:18.083Z,5.20
2019-02-25T18:21:51.006Z,5.30
2019-02-25T18:24:26.792Z,5.30
2019-02-25T18:26:57.919Z,5.40
2019-02-25T18:29:32.583Z,5.50
2019-02-25T18:32:05.945Z,5.40
2019-02-25T18:34:39.966Z,5.50
2019-02-25T18:37:15.602Z,5.50
2019-02-25T18:39:47.871Z,5.50
2019-02-25T18:42:20.351Z,5.60
2019-02-25T18:44:54.752Z,5.70
2019-02-25T18:47:27.713Z,5.70
2019-02-25T18:50:03.999Z,5.70
2019-02-25T18:52:36.802Z,5.70
2019-02-25T18:55:11.775Z,5.70
2019-02-25T18:57:48.222Z,5.80
2019-02-25T19:00:39.515Z,5.70
2019-02-25T19:03:12.476Z,5.70
2019-02-25T19:05:46.179Z,5.70
2019-02-25T19:08:20.285Z,5.70
2019-02-25T19:10:54.954Z,5.70
2019-02-25T19:13:32.066Z,5.80
2019-02-25T19:16:01.708Z,5.80
2019-02-25T19:18:34.291Z,5.90
2019-02-25T19:21:09.292Z,5.90
2019-02-25T19:23:44.064Z,5.90
2019-02-25T19:26:17.376Z,6.00
2019-02-25T19:28:50.137Z,6.00
2019-02-25T19:31:23.867Z,6.00
2019-02-25T19:34:00.076Z,6.10
2019-02-25T19:36:29.651Z,6.10
2019-02-25T19:39:00.196Z,6.10
2019-02-25T19:41:32.714Z,6.10
2019-02-25T19:44:08.826Z,6.10
2019-02-25T19:46:48.075Z,6.10
2019-02-25T19:49:20.766Z,6.20
2019-02-25T19:51:55.647Z,6.20
2019-02-25T19:54:36.220Z,6.20
2019-02-25T19:57:08.768Z,6.20
2019-02-25T19:59:43.364Z,6.10
2019-02-25T20:02:17.641Z,6.10
2019-02-25T20:04:51.977Z,6.00
2019-02-25T20:07:27.900Z,5.90
2019-02-25T20:09:59.843Z,5.90
2019-02-25T20:12:35.183Z,5.80
2019-02-25T20:15:11.317Z,5.80
2019-02-25T20:17:46.756Z,5.80
2019-02-25T20:20:24.223Z,5.70
2019-02-25T20:22:57.857Z,5.60
2019-02-25T20:25:32.156Z,5.60
2019-02-25T20:28:06.334Z,5.60
2019-02-25T20:30:43.015Z,5.50
2019-02-25T20:33:16.158Z,5.50
2019-02-25T20:35:51.162Z,5.40
2019-02-25T20:38:26.841Z,5.40
2019-02-25T20:41:00.096Z,5.30
2019-02-25T20:43:35.819Z,5.20
2019-02-25T20:46:08.681Z,5.10
2019-02-25T20:48:44.506Z,5.10
2019-02-25T20:51:16.634Z,5.00
2019-02-25T20:53:53.373Z,5.10
2019-02-25T20:56:30.960Z,5.00
2019-02-25T20:59:05.642Z,4.90
2019-02-25T21:01:43.887Z,4.90
2019-02-25T21:04:17.878Z,4.80
2019-02-25T21:06:51.358Z,4.70
2019-02-25T21:09:24.655Z,4.70
2019-02-25T21:11:58.432Z,4.70
2019-02-25T21:14:31.792Z,4.70
2019-02-25T21:17:03.136Z,4.60
2019-02-25T21:19:39.885Z,4.60
2019-02-25T21:22:13.439Z,4.60
2019-02-25T21:24:49.510Z,4.50
2019-02-25T21:27:28.369Z,4.50
2019-02-25T21:30:02.006Z,4.40
2019-02-25T21:32:36.545Z,4.40
2019-02-25T21:35:09.345Z,4.30
2019-02-25T21:37:46.102Z,4.30
2019-02-25T21:40:20.050Z,4.20
2019-02-25T21:42:54.449Z,4.10
2019-02-25T21:45:29.400Z,4.10
2019-02-25T21:48:01.555Z,4.10
2019-02-25T21:50:35.921Z,4.10
2019-02-25T21:53:15.618Z,4.10
2019-02-25T21:55:46.372Z,4.10
2019-02-25T21:58:21.384Z,4.10
2019-02-25T22:00:52.654Z,4.10
2019-02-25T22:03:27.481Z,4.00
2019-02-25T22:06:02.217Z,4.00
2019-02-25T22:08:36.294Z,4.00
2019-02-25T22:11:13.017Z,4.00
2019-02-25T22:13:45.591Z,4.00
2019-02-25T22:16:23.478Z,4.00
2019-02-25T22:18:58.742Z,4.00
2019-02-25T22:21:33.742Z,4.00
2019-02-25T22:24:09.726Z,4.00
2019-02-25T22:26:44.597Z,4.00
2019-02-25T22:29:17.671Z,4.00
2019-02-25T22:31:52.002Z,4.00
2019-02-25T22:34:26.429Z,3.90
2019-02-25T22:37:02.520Z,3.90
2019-02-25T22:39:38.748Z,3.90
2019-02-25T22:42:12.212Z,4.00
2019-02-25T22:44:47.492Z,4.00
2019-02-25T22:47:28.309Z,3.90
2019-02-25T22:50:01.301Z,3.90
2019-02-25T22:52:35.687Z,3.90
2019-02-25T22:55:10.025Z,3.90
2019-02-25T22:57:45.702Z,3.90
2019-02-25T23:00:45.074Z,3.90
2019-02-25T23:03:20.911Z,3.90
2019-02-25T23:05:55.088Z,3.80
2019-02-25T23:08:29.686Z,3.80
2019-02-25T23:11:03.134Z,3.80
2019-02-25T23:13:36.945Z,3.80
2019-02-25T23:16:09.661Z,3.70
2019-02-25T23:18:43.214Z,3.60
2019-02-25T23:21:23.835Z,3.60
2019-02-25T23:23:55.759Z,3.60
2019-02-25T23:26:30.548Z,3.50
2019-02-25T23:29:03.513Z,3.60
2019-02-25T23:31:34.801Z,3.60
2019-02-25T23:34:10.291Z,3.50
2019-02-25T23:36:43.007Z,3.60
2019-02-25T23:39:11.713Z,3.60
2019-02-25T23:41:43.832Z,3.60
2019-02-25T23:44:15.050Z,3.70
2019-02-25T23:46:46.911Z,3.70
2019-02-25T23:49:27.380Z,3.80
2019-02-25T23:51:56.443Z,3.80
2019-02-25T23:54:28.891Z,3.80
2019-02-25T23:57:04.470Z,3.70
2019-02-25T23:59:40.409Z,3.80
